sensor_id;sensor_type;location;lat;lon;timestamp;temperature;humidity
44166;DHT22;30476;53.468;9.826;2024-03-02T00:02:13;10.10;99.90
44166;DHT22;30476;53.468;9.826;2024-03-02T00:04:39;10.10;99.90
44166;DHT22;30476;53.468;9.826;2024-03-02T00:07:06;10.10;99.90
44166;DHT22;30476;53.468;9.826;2024-03-02T00:09:33;10.10;99.90
44166;DHT22;30476;53.468;9.826;2024-03-02T00:12:00;10.10;99.90
44166;DHT22;30476;53.468;9.826;2024-03-02T00:14:29;10.10;99.90
44166;DHT22;30476;53.468;9.826;2024-03-02T00:16:55;10.10;99.90
44166;DHT22;30476;53.468;9.826;2024-03-02T00:19:22;10.10;99.90
44166;DHT22;30476;53.468;9.826;2024-03-02T00:21:47;10.10;99.90
44166;DHT22;30476;53.468;9.826;2024-03-02T00:24:34;10.10;99.90
44166;DHT22;30476;53.468;9.826;2024-03-02T00:27:00;10.10;99.90
44166;DHT22;30476;53.468;9.826;2024-03-02T00:29:28;10.10;99.90
44166;DHT22;30476;53.468;9.826;2024-03-02T00:31:55;10.10;99.90
44166;DHT22;30476;53.468;9.826;2024-03-02T00:34:21;10.10;99.90
44166;DHT22;30476;53.468;9.826;2024-03-02T00:36:48;10.10;99.90
44166;DHT22;30476;53.468;9.826;2024-03-02T00:39:15;10.10;99.90
44166;DHT22;30476;53.468;9.826;2024-03-02T00:41:42;10.10;99.90
44166;DHT22;30476;53.468;9.826;2024-03-02T00:44:11;10.10;99.90
44166;DHT22;30476;53.468;9.826;2024-03-02T00:46:38;10.10;99.90
44166;DHT22;30476;53.468;9.826;2024-03-02T00:51:37;10.10;99.90
44166;DHT22;30476;53.468;9.826;2024-03-02T00:54:05;10.10;99.90
44166;DHT22;30476;53.468;9.826;2024-03-02T00:56:32;10.10;99.90
44166;DHT22;30476;53.468;9.826;2024-03-02T00:58:58;10.10;99.90
44166;DHT22;30476;53.468;9.826;2024-03-02T01:01:24;10.10;99.90
44166;DHT22;30476;53.468;9.826;2024-03-02T01:03:50;10.10;99.90
44166;DHT22;30476;53.468;9.826;2024-03-02T01:06:16;10.10;99.90
44166;DHT22;30476;53.468;9.826;2024-03-02T01:08:42;10.10;99.90
44166;DHT22;30476;53.468;9.826;2024-03-02T01:11:08;10.10;99.90
44166;DHT22;30476;53.468;9.826;2024-03-02T01:13:34;10.10;99.90
44166;DHT22;30476;53.468;9.826;2024-03-02T01:16:00;10.10;99.90
44166;DHT22;30476;53.468;9.826;2024-03-02T01:18:27;10.10;99.90
44166;DHT22;30476;53.468;9.826;2024-03-02T01:20:52;10.10;99.90
44166;DHT22;30476;53.468;9.826;2024-03-02T01:23:21;10.10;99.90
44166;DHT22;30476;53.468;9.826;2024-03-02T01:25:47;10.10;99.90
44166;DHT22;30476;53.468;9.826;2024-03-02T01:28:14;10.10;99.90
44166;DHT22;30476;53.468;9.826;2024-03-02T01:30:40;10.10;99.90
44166;DHT22;30476;53.468;9.826;2024-03-02T01:33:06;10.10;99.90
44166;DHT22;30476;53.468;9.826;2024-03-02T01:35:32;10.00;99.90
44166;DHT22;30476;53.468;9.826;2024-03-02T01:37:58;10.00;99.90
44166;DHT22;30476;53.468;9.826;2024-03-02T01:40:24;10.00;99.90
44166;DHT22;30476;53.468;9.826;2024-03-02T01:42:52;10.00;99.90
44166;DHT22;30476;53.468;9.826;2024-03-02T01:45:19;10.00;99.90
44166;DHT22;30476;53.468;9.826;2024-03-02T01:47:45;10.00;99.90
44166;DHT22;30476;53.468;9.826;2024-03-02T01:50:11;10.00;99.90
44166;DHT22;30476;53.468;9.826;2024-03-02T01:52:37;10.00;99.90
44166;DHT22;30476;53.468;9.826;2024-03-02T01:55:04;10.00;99.90
44166;DHT22;30476;53.468;9.826;2024-03-02T01:57:29;10.00;99.90
44166;DHT22;30476;53.468;9.826;2024-03-02T01:59:56;10.00;99.90
44166;DHT22;30476;53.468;9.826;2024-03-02T02:02:22;9.90;99.90
44166;DHT22;30476;53.468;9.826;2024-03-02T02:04:48;9.90;99.90
44166;DHT22;30476;53.468;9.826;2024-03-02T02:07:13;9.90;99.90
44166;DHT22;30476;53.468;9.826;2024-03-02T02:09:43;9.90;99.90
44166;DHT22;30476;53.468;9.826;2024-03-02T02:12:12;9.90;99.90
44166;DHT22;30476;53.468;9.826;2024-03-02T02:14:37;9.90;99.90
44166;DHT22;30476;53.468;9.826;2024-03-02T02:17:05;9.90;99.90
44166;DHT22;30476;53.468;9.826;2024-03-02T02:19:31;9.80;99.90
44166;DHT22;30476;53.468;9.826;2024-03-02T02:21:56;9.80;99.90
44166;DHT22;30476;53.468;9.826;2024-03-02T02:24:22;9.80;99.90
44166;DHT22;30476;53.468;9.826;2024-03-02T02:26:47;9.80;99.90
44166;DHT22;30476;53.468;9.826;2024-03-02T02:29:13;9.80;99.90
44166;DHT22;30476;53.468;9.826;2024-03-02T02:31:40;9.80;99.90
44166;DHT22;30476;53.468;9.826;2024-03-02T02:34:06;9.80;99.90
44166;DHT22;30476;53.468;9.826;2024-03-02T02:36:37;9.80;99.90
44166;DHT22;30476;53.468;9.826;2024-03-02T02:39:04;9.70;99.90
44166;DHT22;30476;53.468;9.826;2024-03-02T02:41:30;9.80;99.90
44166;DHT22;30476;53.468;9.826;2024-03-02T02:43:56;9.70;99.90
44166;DHT22;30476;53.468;9.826;2024-03-02T02:46:22;9.70;99.90
44166;DHT22;30476;53.468;9.826;2024-03-02T02:48:48;9.70;99.90
44166;DHT22;30476;53.468;9.826;2024-03-02T02:51:14;9.70;99.90
44166;DHT22;30476;53.468;9.826;2024-03-02T02:53:39;9.70;99.90
44166;DHT22;30476;53.468;9.826;2024-03-02T02:56:08;9.60;99.90
44166;DHT22;30476;53.468;9.826;2024-03-02T02:58:34;9.60;99.90
44166;DHT22;30476;53.468;9.826;2024-03-02T03:00:59;9.60;99.90
44166;DHT22;30476;53.468;9.826;2024-03-02T03:03:25;9.60;99.90
44166;DHT22;30476;53.468;9.826;2024-03-02T03:05:51;9.60;99.90
44166;DHT22;30476;53.468;9.826;2024-03-02T03:08:17;9.60;99.90
44166;DHT22;30476;53.468;9.826;2024-03-02T03:10:42;9.60;99.90
44166;DHT22;30476;53.468;9.826;2024-03-02T03:13:08;9.60;99.90
44166;DHT22;30476;53.468;9.826;2024-03-02T03:15:35;9.60;99.90
44166;DHT22;30476;53.468;9.826;2024-03-02T03:18:05;9.60;99.90
44166;DHT22;30476;53.468;9.826;2024-03-02T03:20:31;9.60;99.90
44166;DHT22;30476;53.468;9.826;2024-03-02T03:22:57;9.60;99.90
44166;DHT22;30476;53.468;9.826;2024-03-02T03:25:23;9.60;99.90
44166;DHT22;30476;53.468;9.826;2024-03-02T03:27:49;9.60;99.90
44166;DHT22;30476;53.468;9.826;2024-03-02T03:30:15;9.60;99.90
44166;DHT22;30476;53.468;9.826;2024-03-02T03:32:40;9.60;99.90
44166;DHT22;30476;53.468;9.826;2024-03-02T03:35:07;9.60;99.90
44166;DHT22;30476;53.468;9.826;2024-03-02T03:37:32;9.60;99.90
44166;DHT22;30476;53.468;9.826;2024-03-02T03:39:59;9.60;99.90
44166;DHT22;30476;53.468;9.826;2024-03-02T03:42:25;9.60;99.90
44166;DHT22;30476;53.468;9.826;2024-03-02T03:44:51;9.60;99.90
44166;DHT22;30476;53.468;9.826;2024-03-02T03:47:17;9.60;99.90
44166;DHT22;30476;53.468;9.826;2024-03-02T03:49:43;9.60;99.90
44166;DHT22;30476;53.468;9.826;2024-03-02T03:52:08;9.60;99.90
44166;DHT22;30476;53.468;9.826;2024-03-02T03:54:34;9.60;99.90
44166;DHT22;30476;53.468;9.826;2024-03-02T03:57:02;9.60;99.90
44166;DHT22;30476;53.468;9.826;2024-03-02T03:59:28;9.60;99.90
44166;DHT22;30476;53.468;9.826;2024-03-02T04:01:54;9.70;99.90
44166;DHT22;30476;53.468;9.826;2024-03-02T04:04:20;9.60;99.90
44166;DHT22;30476;53.468;9.826;2024-03-02T04:06:45;9.60;99.90
44166;DHT22;30476;53.468;9.826;2024-03-02T04:09:11;9.60;99.90
44166;DHT22;30476;53.468;9.826;2024-03-02T04:11:37;9.60;99.90
44166;DHT22;30476;53.468;9.826;2024-03-02T04:14:03;9.60;99.90
44166;DHT22;30476;53.468;9.826;2024-03-02T04:16:29;9.60;99.90
44166;DHT22;30476;53.468;9.826;2024-03-02T04:18:55;9.60;99.90
44166;DHT22;30476;53.468;9.826;2024-03-02T04:21:20;9.60;99.90
44166;DHT22;30476;53.468;9.826;2024-03-02T04:23:46;9.60;99.90
44166;DHT22;30476;53.468;9.826;2024-03-02T04:26:12;9.60;99.90
44166;DHT22;30476;53.468;9.826;2024-03-02T04:28:38;9.50;99.90
44166;DHT22;30476;53.468;9.826;2024-03-02T04:31:03;9.50;99.90
44166;DHT22;30476;53.468;9.826;2024-03-02T04:33:29;9.60;99.90
44166;DHT22;30476;53.468;9.826;2024-03-02T04:35:55;9.60;99.90
44166;DHT22;30476;53.468;9.826;2024-03-02T04:38:21;9.50;99.90
44166;DHT22;30476;53.468;9.826;2024-03-02T04:40:46;9.50;99.90
44166;DHT22;30476;53.468;9.826;2024-03-02T04:43:12;9.50;99.90
44166;DHT22;30476;53.468;9.826;2024-03-02T04:45:42;9.60;99.90
44166;DHT22;30476;53.468;9.826;2024-03-02T04:48:08;9.50;99.90
44166;DHT22;30476;53.468;9.826;2024-03-02T04:50:34;9.60;99.90
44166;DHT22;30476;53.468;9.826;2024-03-02T04:53:00;9.50;99.90
44166;DHT22;30476;53.468;9.826;2024-03-02T04:55:25;9.60;99.90
44166;DHT22;30476;53.468;9.826;2024-03-02T04:57:54;9.50;99.90
44166;DHT22;30476;53.468;9.826;2024-03-02T05:00:22;9.50;99.90
44166;DHT22;30476;53.468;9.826;2024-03-02T05:02:48;9.50;99.90
44166;DHT22;30476;53.468;9.826;2024-03-02T05:05:14;9.50;99.90
44166;DHT22;30476;53.468;9.826;2024-03-02T05:07:43;9.50;99.90
44166;DHT22;30476;53.468;9.826;2024-03-02T05:10:10;9.50;99.90
44166;DHT22;30476;53.468;9.826;2024-03-02T05:12:37;9.60;99.90
44166;DHT22;30476;53.468;9.826;2024-03-02T05:15:10;9.50;99.90
44166;DHT22;30476;53.468;9.826;2024-03-02T05:17:36;9.50;99.90
44166;DHT22;30476;53.468;9.826;2024-03-02T05:20:03;9.50;99.90
44166;DHT22;30476;53.468;9.826;2024-03-02T05:22:29;9.50;99.90
44166;DHT22;30476;53.468;9.826;2024-03-02T05:24:55;9.50;99.90
44166;DHT22;30476;53.468;9.826;2024-03-02T05:27:20;9.60;99.90
44166;DHT22;30476;53.468;9.826;2024-03-02T05:29:46;9.50;99.90
44166;DHT22;30476;53.468;9.826;2024-03-02T05:32:12;9.50;99.90
44166;DHT22;30476;53.468;9.826;2024-03-02T05:34:38;9.50;99.90
44166;DHT22;30476;53.468;9.826;2024-03-02T05:37:04;9.50;99.90
44166;DHT22;30476;53.468;9.826;2024-03-02T05:39:30;9.50;99.90
44166;DHT22;30476;53.468;9.826;2024-03-02T05:41:56;9.40;99.90
44166;DHT22;30476;53.468;9.826;2024-03-02T05:44:21;9.50;99.90
44166;DHT22;30476;53.468;9.826;2024-03-02T05:46:48;9.40;99.90
44166;DHT22;30476;53.468;9.826;2024-03-02T05:49:13;9.40;99.90
44166;DHT22;30476;53.468;9.826;2024-03-02T05:51:39;9.40;99.90
44166;DHT22;30476;53.468;9.826;2024-03-02T05:54:05;9.40;99.90
44166;DHT22;30476;53.468;9.826;2024-03-02T05:56:31;9.40;99.90
44166;DHT22;30476;53.468;9.826;2024-03-02T05:58:56;9.40;99.90
44166;DHT22;30476;53.468;9.826;2024-03-02T06:01:39;9.40;99.90
44166;DHT22;30476;53.468;9.826;2024-03-02T06:04:05;9.40;99.90
44166;DHT22;30476;53.468;9.826;2024-03-02T06:06:31;9.30;99.90
44166;DHT22;30476;53.468;9.826;2024-03-02T06:09:02;9.30;99.90
44166;DHT22;30476;53.468;9.826;2024-03-02T06:11:30;9.30;99.90
44166;DHT22;30476;53.468;9.826;2024-03-02T06:13:56;9.30;99.90
44166;DHT22;30476;53.468;9.826;2024-03-02T06:16:22;9.30;99.90
44166;DHT22;30476;53.468;9.826;2024-03-02T06:18:48;9.30;99.90
44166;DHT22;30476;53.468;9.826;2024-03-02T06:21:14;9.30;99.90
44166;DHT22;30476;53.468;9.826;2024-03-02T06:23:39;9.30;99.90
44166;DHT22;30476;53.468;9.826;2024-03-02T06:26:05;9.20;99.90
44166;DHT22;30476;53.468;9.826;2024-03-02T06:28:31;9.20;99.90
44166;DHT22;30476;53.468;9.826;2024-03-02T06:30:57;9.20;99.90
44166;DHT22;30476;53.468;9.826;2024-03-02T06:33:22;9.20;99.90
44166;DHT22;30476;53.468;9.826;2024-03-02T06:35:48;9.20;99.90
44166;DHT22;30476;53.468;9.826;2024-03-02T06:38:14;9.20;99.90
44166;DHT22;30476;53.468;9.826;2024-03-02T06:40:40;9.20;99.90
44166;DHT22;30476;53.468;9.826;2024-03-02T06:43:06;9.10;99.90
44166;DHT22;30476;53.468;9.826;2024-03-02T06:45:32;9.10;99.90
44166;DHT22;30476;53.468;9.826;2024-03-02T06:48:00;9.10;99.90
44166;DHT22;30476;53.468;9.826;2024-03-02T06:50:25;9.10;99.90
44166;DHT22;30476;53.468;9.826;2024-03-02T06:52:52;9.20;99.90
44166;DHT22;30476;53.468;9.826;2024-03-02T06:55:18;9.20;99.90
44166;DHT22;30476;53.468;9.826;2024-03-02T06:57:44;9.20;99.90
44166;DHT22;30476;53.468;9.826;2024-03-02T07:00:10;9.20;99.90
44166;DHT22;30476;53.468;9.826;2024-03-02T07:02:36;9.20;99.90
44166;DHT22;30476;53.468;9.826;2024-03-02T07:05:03;9.30;99.90
44166;DHT22;30476;53.468;9.826;2024-03-02T07:07:29;9.20;99.90
44166;DHT22;30476;53.468;9.826;2024-03-02T07:09:55;9.20;99.90
44166;DHT22;30476;53.468;9.826;2024-03-02T07:12:21;9.30;99.90
44166;DHT22;30476;53.468;9.826;2024-03-02T07:14:46;9.30;99.90
44166;DHT22;30476;53.468;9.826;2024-03-02T07:17:31;9.30;99.90
44166;DHT22;30476;53.468;9.826;2024-03-02T07:19:57;9.30;99.90
44166;DHT22;30476;53.468;9.826;2024-03-02T07:22:23;9.30;99.90
44166;DHT22;30476;53.468;9.826;2024-03-02T07:24:49;9.30;99.90
44166;DHT22;30476;53.468;9.826;2024-03-02T07:27:16;9.40;99.90
44166;DHT22;30476;53.468;9.826;2024-03-02T07:29:42;9.40;99.90
44166;DHT22;30476;53.468;9.826;2024-03-02T07:32:09;9.40;99.90
44166;DHT22;30476;53.468;9.826;2024-03-02T07:34:35;9.40;99.90
44166;DHT22;30476;53.468;9.826;2024-03-02T07:37:01;9.50;99.90
44166;DHT22;30476;53.468;9.826;2024-03-02T07:39:27;9.50;99.90
44166;DHT22;30476;53.468;9.826;2024-03-02T07:41:53;9.50;99.90
44166;DHT22;30476;53.468;9.826;2024-03-02T07:44:19;9.50;99.90
44166;DHT22;30476;53.468;9.826;2024-03-02T07:46:45;9.60;99.90
44166;DHT22;30476;53.468;9.826;2024-03-02T07:49:20;9.60;99.90
44166;DHT22;30476;53.468;9.826;2024-03-02T07:51:46;9.60;99.90
44166;DHT22;30476;53.468;9.826;2024-03-02T07:54:12;9.70;99.90
44166;DHT22;30476;53.468;9.826;2024-03-02T07:56:38;9.60;99.90
44166;DHT22;30476;53.468;9.826;2024-03-02T07:59:04;9.70;99.90
44166;DHT22;30476;53.468;9.826;2024-03-02T08:01:31;9.70;99.90
44166;DHT22;30476;53.468;9.826;2024-03-02T08:03:57;9.70;99.90
44166;DHT22;30476;53.468;9.826;2024-03-02T08:06:24;9.80;99.90
44166;DHT22;30476;53.468;9.826;2024-03-02T08:09:02;9.90;99.90
44166;DHT22;30476;53.468;9.826;2024-03-02T08:11:30;9.90;99.90
44166;DHT22;30476;53.468;9.826;2024-03-02T08:13:56;9.90;99.90
44166;DHT22;30476;53.468;9.826;2024-03-02T08:16:25;9.90;99.90
44166;DHT22;30476;53.468;9.826;2024-03-02T08:18:51;10.00;99.90
44166;DHT22;30476;53.468;9.826;2024-03-02T08:21:18;10.00;99.90
44166;DHT22;30476;53.468;9.826;2024-03-02T08:23:44;10.00;99.90
44166;DHT22;30476;53.468;9.826;2024-03-02T08:26:10;10.00;99.90
44166;DHT22;30476;53.468;9.826;2024-03-02T08:28:36;10.10;99.90
44166;DHT22;30476;53.468;9.826;2024-03-02T08:31:11;10.10;99.90
44166;DHT22;30476;53.468;9.826;2024-03-02T08:33:37;10.10;99.90
44166;DHT22;30476;53.468;9.826;2024-03-02T08:36:03;10.10;99.90
44166;DHT22;30476;53.468;9.826;2024-03-02T08:38:29;10.10;99.90
44166;DHT22;30476;53.468;9.826;2024-03-02T08:40:55;10.20;99.90
44166;DHT22;30476;53.468;9.826;2024-03-02T08:43:21;10.20;99.90
44166;DHT22;30476;53.468;9.826;2024-03-02T08:45:48;10.20;99.90
44166;DHT22;30476;53.468;9.826;2024-03-02T08:48:14;10.20;99.90
44166;DHT22;30476;53.468;9.826;2024-03-02T08:50:40;10.30;99.90
44166;DHT22;30476;53.468;9.826;2024-03-02T08:53:05;10.30;99.90
44166;DHT22;30476;53.468;9.826;2024-03-02T08:55:31;10.40;99.90
44166;DHT22;30476;53.468;9.826;2024-03-02T08:57:57;10.40;99.90
44166;DHT22;30476;53.468;9.826;2024-03-02T09:00:23;10.40;99.90
44166;DHT22;30476;53.468;9.826;2024-03-02T09:02:49;10.50;99.90
44166;DHT22;30476;53.468;9.826;2024-03-02T09:05:15;10.50;99.90
44166;DHT22;30476;53.468;9.826;2024-03-02T09:07:41;10.60;99.90
44166;DHT22;30476;53.468;9.826;2024-03-02T09:10:08;10.60;99.90
44166;DHT22;30476;53.468;9.826;2024-03-02T09:12:34;10.70;99.90
44166;DHT22;30476;53.468;9.826;2024-03-02T09:15:04;10.70;99.90
44166;DHT22;30476;53.468;9.826;2024-03-02T09:17:31;10.80;99.90
44166;DHT22;30476;53.468;9.826;2024-03-02T09:19:57;10.80;99.90
44166;DHT22;30476;53.468;9.826;2024-03-02T09:22:23;10.90;99.90
44166;DHT22;30476;53.468;9.826;2024-03-02T09:24:48;11.00;99.90
44166;DHT22;30476;53.468;9.826;2024-03-02T09:27:14;11.00;99.90
44166;DHT22;30476;53.468;9.826;2024-03-02T09:29:40;11.10;99.90
44166;DHT22;30476;53.468;9.826;2024-03-02T09:32:06;11.20;99.90
44166;DHT22;30476;53.468;9.826;2024-03-02T09:34:32;11.30;99.90
44166;DHT22;30476;53.468;9.826;2024-03-02T09:36:58;11.40;99.90
44166;DHT22;30476;53.468;9.826;2024-03-02T09:39:24;11.40;99.90
44166;DHT22;30476;53.468;9.826;2024-03-02T09:41:51;11.50;99.90
44166;DHT22;30476;53.468;9.826;2024-03-02T09:44:17;11.60;99.90
44166;DHT22;30476;53.468;9.826;2024-03-02T09:46:43;11.60;99.90
44166;DHT22;30476;53.468;9.826;2024-03-02T09:49:12;11.80;99.90
44166;DHT22;30476;53.468;9.826;2024-03-02T09:51:38;11.80;99.90
44166;DHT22;30476;53.468;9.826;2024-03-02T09:54:07;11.90;99.90
44166;DHT22;30476;53.468;9.826;2024-03-02T09:56:33;11.90;99.90
44166;DHT22;30476;53.468;9.826;2024-03-02T09:58:59;12.00;99.90
44166;DHT22;30476;53.468;9.826;2024-03-02T10:01:25;12.10;99.90
44166;DHT22;30476;53.468;9.826;2024-03-02T10:03:51;12.10;99.90
44166;DHT22;30476;53.468;9.826;2024-03-02T10:06:24;12.20;99.90
44166;DHT22;30476;53.468;9.826;2024-03-02T10:08:50;12.30;99.90
44166;DHT22;30476;53.468;9.826;2024-03-02T10:11:26;12.40;99.90
44166;DHT22;30476;53.468;9.826;2024-03-02T10:14:09;12.50;99.90
44166;DHT22;30476;53.468;9.826;2024-03-02T10:16:40;12.50;99.90
44166;DHT22;30476;53.468;9.826;2024-03-02T10:19:20;12.60;99.90
44166;DHT22;30476;53.468;9.826;2024-03-02T10:21:50;12.70;99.90
44166;DHT22;30476;53.468;9.826;2024-03-02T10:24:17;12.70;99.90
44166;DHT22;30476;53.468;9.826;2024-03-02T10:26:43;12.80;99.90
44166;DHT22;30476;53.468;9.826;2024-03-02T10:29:09;12.80;99.90
44166;DHT22;30476;53.468;9.826;2024-03-02T10:31:39;12.90;99.90
44166;DHT22;30476;53.468;9.826;2024-03-02T10:34:06;13.00;99.90
44166;DHT22;30476;53.468;9.826;2024-03-02T10:36:36;13.10;99.90
44166;DHT22;30476;53.468;9.826;2024-03-02T10:39:03;13.10;99.90
44166;DHT22;30476;53.468;9.826;2024-03-02T10:41:33;13.20;99.90
44166;DHT22;30476;53.468;9.826;2024-03-02T10:44:05;13.30;99.90
44166;DHT22;30476;53.468;9.826;2024-03-02T10:46:33;13.40;99.90
44166;DHT22;30476;53.468;9.826;2024-03-02T10:49:01;13.40;99.90
44166;DHT22;30476;53.468;9.826;2024-03-02T10:51:29;13.50;99.90
44166;DHT22;30476;53.468;9.826;2024-03-02T10:53:58;13.60;99.90
44166;DHT22;30476;53.468;9.826;2024-03-02T10:56:31;13.70;99.90
44166;DHT22;30476;53.468;9.826;2024-03-02T10:59:24;13.80;99.90
44166;DHT22;30476;53.468;9.826;2024-03-02T11:01:55;13.80;99.90
44166;DHT22;30476;53.468;9.826;2024-03-02T11:04:24;13.90;99.90
44166;DHT22;30476;53.468;9.826;2024-03-02T11:06:51;14.00;99.90
44166;DHT22;30476;53.468;9.826;2024-03-02T11:09:22;14.10;99.90
44166;DHT22;30476;53.468;9.826;2024-03-02T11:12:28;14.10;99.90
44166;DHT22;30476;53.468;9.826;2024-03-02T11:14:56;14.10;99.90
44166;DHT22;30476;53.468;9.826;2024-03-02T11:17:22;14.10;99.90
44166;DHT22;30476;53.468;9.826;2024-03-02T11:19:49;14.10;99.90
44166;DHT22;30476;53.468;9.826;2024-03-02T11:22:16;14.20;99.90
44166;DHT22;30476;53.468;9.826;2024-03-02T11:24:48;14.20;99.90
44166;DHT22;30476;53.468;9.826;2024-03-02T11:27:14;14.20;99.90
44166;DHT22;30476;53.468;9.826;2024-03-02T11:30:00;14.20;99.90
44166;DHT22;30476;53.468;9.826;2024-03-02T11:32:26;14.20;99.90
44166;DHT22;30476;53.468;9.826;2024-03-02T11:34:52;14.20;99.90
44166;DHT22;30476;53.468;9.826;2024-03-02T11:37:19;14.20;99.90
44166;DHT22;30476;53.468;9.826;2024-03-02T11:39:50;14.20;99.90
44166;DHT22;30476;53.468;9.826;2024-03-02T11:42:16;14.20;99.90
44166;DHT22;30476;53.468;9.826;2024-03-02T11:44:45;14.30;99.90
44166;DHT22;30476;53.468;9.826;2024-03-02T11:47:12;14.30;99.90
44166;DHT22;30476;53.468;9.826;2024-03-02T11:49:44;14.30;99.90
44166;DHT22;30476;53.468;9.826;2024-03-02T11:52:13;14.40;99.90
44166;DHT22;30476;53.468;9.826;2024-03-02T11:54:41;14.40;99.90
44166;DHT22;30476;53.468;9.826;2024-03-02T11:57:17;14.40;99.90
44166;DHT22;30476;53.468;9.826;2024-03-02T11:59:43;14.40;99.90
44166;DHT22;30476;53.468;9.826;2024-03-02T12:02:17;14.40;99.90
44166;DHT22;30476;53.468;9.826;2024-03-02T12:04:44;14.40;99.90
44166;DHT22;30476;53.468;9.826;2024-03-02T12:07:10;14.50;99.90
44166;DHT22;30476;53.468;9.826;2024-03-02T12:09:36;14.50;99.90
44166;DHT22;30476;53.468;9.826;2024-03-02T12:12:05;14.50;99.90
44166;DHT22;30476;53.468;9.826;2024-03-02T12:14:32;14.50;99.90
44166;DHT22;30476;53.468;9.826;2024-03-02T12:16:59;14.60;99.90
44166;DHT22;30476;53.468;9.826;2024-03-02T12:19:28;14.60;99.90
44166;DHT22;30476;53.468;9.826;2024-03-02T12:21:59;14.60;99.90
44166;DHT22;30476;53.468;9.826;2024-03-02T12:24:29;14.60;99.90
44166;DHT22;30476;53.468;9.826;2024-03-02T12:26:56;14.60;99.90
44166;DHT22;30476;53.468;9.826;2024-03-02T12:29:22;14.50;99.90
44166;DHT22;30476;53.468;9.826;2024-03-02T12:31:50;14.50;99.90
44166;DHT22;30476;53.468;9.826;2024-03-02T12:34:17;14.50;99.90
44166;DHT22;30476;53.468;9.826;2024-03-02T12:36:44;14.50;99.90
44166;DHT22;30476;53.468;9.826;2024-03-02T12:39:13;14.50;99.90
44166;DHT22;30476;53.468;9.826;2024-03-02T12:41:39;14.50;99.90
44166;DHT22;30476;53.468;9.826;2024-03-02T12:44:05;14.50;99.90
44166;DHT22;30476;53.468;9.826;2024-03-02T12:46:32;14.60;99.90
44166;DHT22;30476;53.468;9.826;2024-03-02T12:49:12;14.60;99.90
44166;DHT22;30476;53.468;9.826;2024-03-02T12:51:39;14.60;99.90
44166;DHT22;30476;53.468;9.826;2024-03-02T12:54:11;14.60;99.90
44166;DHT22;30476;53.468;9.826;2024-03-02T12:56:37;14.60;99.90
44166;DHT22;30476;53.468;9.826;2024-03-02T12:59:04;14.60;99.90
44166;DHT22;30476;53.468;9.826;2024-03-02T13:01:30;14.60;99.90
44166;DHT22;30476;53.468;9.826;2024-03-02T13:03:57;14.50;99.90
44166;DHT22;30476;53.468;9.826;2024-03-02T13:06:24;14.50;99.90
44166;DHT22;30476;53.468;9.826;2024-03-02T13:08:53;14.60;99.90
44166;DHT22;30476;53.468;9.826;2024-03-02T13:11:19;14.60;99.90
44166;DHT22;30476;53.468;9.826;2024-03-02T13:13:45;14.60;99.90
44166;DHT22;30476;53.468;9.826;2024-03-02T13:16:12;14.60;99.90
44166;DHT22;30476;53.468;9.826;2024-03-02T13:18:39;14.70;99.90
44166;DHT22;30476;53.468;9.826;2024-03-02T13:21:08;14.70;99.90
44166;DHT22;30476;53.468;9.826;2024-03-02T13:23:34;14.70;99.90
44166;DHT22;30476;53.468;9.826;2024-03-02T13:26:01;14.80;99.90
44166;DHT22;30476;53.468;9.826;2024-03-02T13:28:27;14.80;99.90
44166;DHT22;30476;53.468;9.826;2024-03-02T13:30:52;14.80;99.90
44166;DHT22;30476;53.468;9.826;2024-03-02T13:33:18;14.90;99.90
44166;DHT22;30476;53.468;9.826;2024-03-02T13:35:49;14.90;99.90
44166;DHT22;30476;53.468;9.826;2024-03-02T13:38:19;15.00;99.90
44166;DHT22;30476;53.468;9.826;2024-03-02T13:40:46;15.00;99.90
44166;DHT22;30476;53.468;9.826;2024-03-02T13:43:17;15.10;99.90
44166;DHT22;30476;53.468;9.826;2024-03-02T13:45:44;15.20;99.90
44166;DHT22;30476;53.468;9.826;2024-03-02T13:48:09;15.30;99.90
44166;DHT22;30476;53.468;9.826;2024-03-02T13:50:35;15.30;99.90
44166;DHT22;30476;53.468;9.826;2024-03-02T13:53:01;15.40;99.90
44166;DHT22;30476;53.468;9.826;2024-03-02T13:55:28;15.50;99.90
44166;DHT22;30476;53.468;9.826;2024-03-02T13:57:54;15.40;99.90
44166;DHT22;30476;53.468;9.826;2024-03-02T14:00:20;15.50;99.90
44166;DHT22;30476;53.468;9.826;2024-03-02T14:02:46;15.60;99.90
44166;DHT22;30476;53.468;9.826;2024-03-02T14:05:12;15.60;99.90
44166;DHT22;30476;53.468;9.826;2024-03-02T14:07:39;15.70;99.90
44166;DHT22;30476;53.468;9.826;2024-03-02T14:10:05;15.80;99.90
44166;DHT22;30476;53.468;9.826;2024-03-02T14:12:31;15.80;99.90
44166;DHT22;30476;53.468;9.826;2024-03-02T14:14:57;15.90;99.90
44166;DHT22;30476;53.468;9.826;2024-03-02T14:17:28;15.90;99.90
44166;DHT22;30476;53.468;9.826;2024-03-02T14:19:54;15.90;99.90
44166;DHT22;30476;53.468;9.826;2024-03-02T14:22:20;15.90;99.90
44166;DHT22;30476;53.468;9.826;2024-03-02T14:24:46;15.90;99.90
44166;DHT22;30476;53.468;9.826;2024-03-02T14:27:13;15.90;99.90
44166;DHT22;30476;53.468;9.826;2024-03-02T14:29:40;15.90;99.90
44166;DHT22;30476;53.468;9.826;2024-03-02T14:32:06;15.90;99.90
44166;DHT22;30476;53.468;9.826;2024-03-02T14:34:32;15.90;99.90
44166;DHT22;30476;53.468;9.826;2024-03-02T14:36:59;15.90;99.90
44166;DHT22;30476;53.468;9.826;2024-03-02T14:39:25;15.90;99.90
44166;DHT22;30476;53.468;9.826;2024-03-02T14:41:51;15.90;99.90
44166;DHT22;30476;53.468;9.826;2024-03-02T14:44:17;15.90;99.90
44166;DHT22;30476;53.468;9.826;2024-03-02T14:46:46;15.90;99.90
44166;DHT22;30476;53.468;9.826;2024-03-02T14:49:12;15.90;99.90
44166;DHT22;30476;53.468;9.826;2024-03-02T14:51:38;15.80;99.90
44166;DHT22;30476;53.468;9.826;2024-03-02T14:54:04;15.70;99.90
44166;DHT22;30476;53.468;9.826;2024-03-02T14:56:30;15.70;99.90
44166;DHT22;30476;53.468;9.826;2024-03-02T14:58:56;15.60;99.90
44166;DHT22;30476;53.468;9.826;2024-03-02T15:01:22;15.60;99.90
44166;DHT22;30476;53.468;9.826;2024-03-02T15:03:50;15.50;99.90
44166;DHT22;30476;53.468;9.826;2024-03-02T15:06:16;15.50;99.90
44166;DHT22;30476;53.468;9.826;2024-03-02T15:08:41;15.40;99.90
44166;DHT22;30476;53.468;9.826;2024-03-02T15:11:08;15.40;99.90
44166;DHT22;30476;53.468;9.826;2024-03-02T15:13:34;15.30;99.90
44166;DHT22;30476;53.468;9.826;2024-03-02T15:16:00;15.20;99.90
44166;DHT22;30476;53.468;9.826;2024-03-02T15:18:26;15.20;99.90
44166;DHT22;30476;53.468;9.826;2024-03-02T15:20:53;15.20;99.90
44166;DHT22;30476;53.468;9.826;2024-03-02T15:23:19;15.10;99.90
44166;DHT22;30476;53.468;9.826;2024-03-02T15:25:44;15.00;99.90
44166;DHT22;30476;53.468;9.826;2024-03-02T15:28:10;15.00;99.90
44166;DHT22;30476;53.468;9.826;2024-03-02T15:30:36;15.00;99.90
44166;DHT22;30476;53.468;9.826;2024-03-02T15:33:02;14.90;99.90
44166;DHT22;30476;53.468;9.826;2024-03-02T15:35:28;14.80;99.90
44166;DHT22;30476;53.468;9.826;2024-03-02T15:37:54;14.80;99.90
44166;DHT22;30476;53.468;9.826;2024-03-02T15:40:20;14.70;99.90